createdAt,value
2019-04-01T00:02:08.052Z,3.57
2019-04-01T00:04:34.065Z,3.63
2019-04-01T00:07:00.066Z,3.60
2019-04-01T00:09:26.096Z,3.67
2019-04-01T00:11:52.082Z,3.55
2019-04-01T00:14:18.128Z,3.53
2019-04-01T00:16:44.133Z,3.46
2019-04-01T00:19:10.121Z,3.32
2019-04-01T00:21:36.142Z,3.67
2019-04-01T00:24:02.170Z,3.67
2019-04-01T00:26:28.154Z,4.14
2019-04-01T00:28:54.124Z,4.07
2019-04-01T00:31:20.199Z,4.01
2019-04-01T00:33:46.180Z,3.88
2019-04-01T00:36:12.208Z,3.80
2019-04-01T00:38:38.211Z,3.59
2019-04-01T00:41:04.241Z,3.61
2019-04-01T00:43:48.576Z,3.60
2019-04-01T00:46:16.468Z,3.62
2019-04-01T00:48:42.516Z,3.39
2019-04-01T00:51:08.617Z,3.45
2019-04-01T00:53:34.631Z,3.33
2019-04-01T00:56:00.711Z,3.20
2019-04-01T00:58:30.171Z,3.11
2019-04-01T01:00:54.844Z,3.14
2019-04-01T01:03:20.913Z,3.23
2019-04-01T01:05:46.899Z,3.13
2019-04-01T01:08:12.946Z,3.12
2019-04-01T01:10:39.224Z,3.11
2019-04-01T01:13:05.243Z,3.13
2019-04-01T01:15:31.307Z,3.04
2019-04-01T01:17:57.336Z,3.00
2019-04-01T01:20:23.342Z,3.05
2019-04-01T01:22:49.353Z,3.10
2019-04-01T01:25:15.373Z,3.18
2019-04-01T01:27:41.519Z,3.10
2019-04-01T01:30:08.247Z,3.06
2019-04-01T01:32:34.276Z,3.02
2019-04-01T01:35:00.349Z,3.05
2019-04-01T01:37:26.633Z,3.05
2019-04-01T01:39:53.730Z,2.97
2019-04-01T01:42:19.887Z,2.95
2019-04-01T01:44:45.913Z,2.97
2019-04-01T01:47:12.139Z,2.90
2019-04-01T01:49:38.128Z,2.89
2019-04-01T01:52:04.367Z,2.94
2019-04-01T01:54:30.601Z,2.89
2019-04-01T01:56:56.592Z,2.90
2019-04-01T01:59:22.612Z,2.85
2019-04-01T02:01:48.631Z,2.79
2019-04-01T02:04:14.611Z,2.73
2019-04-01T02:06:40.815Z,2.66
2019-04-01T02:09:06.799Z,2.58
2019-04-01T02:11:32.784Z,2.58
2019-04-01T02:13:58.921Z,2.58
2019-04-01T02:16:24.895Z,2.64
2019-04-01T02:18:50.872Z,2.69
2019-04-01T02:21:16.906Z,2.82
2019-04-01T02:23:43.126Z,2.72
2019-04-01T02:26:09.117Z,2.66
2019-04-01T02:28:35.401Z,2.52
2019-04-01T02:31:01.428Z,2.57
2019-04-01T02:33:27.508Z,2.60
2019-04-01T02:35:53.532Z,2.62
2019-04-01T02:38:19.519Z,2.62
2019-04-01T02:40:45.559Z,2.60
2019-04-01T02:43:11.550Z,2.52
2019-04-01T02:45:37.691Z,2.44
2019-04-01T02:48:04.154Z,2.51
2019-04-01T02:50:30.233Z,2.47
2019-04-01T02:52:56.363Z,2.41
2019-04-01T02:55:22.352Z,2.43
2019-04-01T02:57:48.425Z,2.43
2019-04-01T03:00:15.049Z,2.39
2019-04-01T03:02:41.064Z,2.44
2019-04-01T03:05:07.334Z,2.47
2019-04-01T03:07:33.421Z,2.44
2019-04-01T03:09:59.514Z,2.50
2019-04-01T03:12:25.639Z,2.62
2019-04-01T03:14:51.634Z,2.53
2019-04-01T03:17:17.762Z,2.45
2019-04-01T03:19:43.808Z,2.45
2019-04-01T03:22:09.856Z,2.43
2019-04-01T03:24:35.912Z,2.35
2019-04-01T03:27:01.953Z,2.26
2019-04-01T03:29:27.982Z,2.31
2019-04-01T03:31:54.256Z,2.26
2019-04-01T03:34:20.571Z,2.35
2019-04-01T03:36:46.580Z,2.36
2019-04-01T03:39:12.591Z,2.43
2019-04-01T03:41:38.596Z,2.46
2019-04-01T03:44:04.625Z,2.25
2019-04-01T03:46:30.661Z,2.74
2019-04-01T03:48:56.753Z,2.69
2019-04-01T03:51:22.885Z,2.62
2019-04-01T03:53:48.907Z,2.53
2019-04-01T03:56:14.968Z,2.43
2019-04-01T03:58:41.040Z,2.43
2019-04-01T04:01:07.068Z,2.32
2019-04-01T04:03:33.052Z,2.21
2019-04-01T04:05:59.164Z,2.19
2019-04-01T04:08:25.156Z,2.17
2019-04-01T04:10:51.151Z,2.11
2019-04-01T04:13:17.298Z,2.16
2019-04-01T04:15:43.298Z,2.17
2019-04-01T04:18:09.344Z,2.15
2019-04-01T04:20:35.402Z,2.22
2019-04-01T04:23:01.423Z,2.20
2019-04-01T04:25:28.465Z,2.13
2019-04-01T04:27:54.528Z,2.07
2019-04-01T04:30:20.582Z,2.00
2019-04-01T04:32:46.558Z,1.97
2019-04-01T04:35:12.744Z,1.79
2019-04-01T04:37:38.780Z,1.70
2019-04-01T04:40:05.732Z,1.70
2019-04-01T04:42:31.720Z,1.70
2019-04-01T04:44:57.931Z,1.69
2019-04-01T04:47:24.074Z,1.71
2019-04-01T04:49:50.204Z,1.80
2019-04-01T04:52:16.451Z,1.71
2019-04-01T04:54:42.475Z,1.90
2019-04-01T04:57:08.509Z,1.86
2019-04-01T04:59:34.558Z,1.67
2019-04-01T05:02:00.650Z,1.73
2019-04-01T05:04:26.948Z,1.77
2019-04-01T05:06:53.032Z,1.81
2019-04-01T05:09:19.188Z,1.93
2019-04-01T05:11:45.253Z,2.07
2019-04-01T05:14:11.265Z,2.20
2019-04-01T05:16:37.259Z,2.15
2019-04-01T05:19:03.431Z,2.15
2019-04-01T05:21:31.064Z,2.15
2019-04-01T05:23:57.075Z,2.27
2019-04-01T05:26:23.745Z,2.35
2019-04-01T05:28:50.211Z,2.35
2019-04-01T05:31:17.908Z,2.31
2019-04-01T05:33:54.838Z,2.23
2019-04-01T05:36:12.560Z,2.26
2019-04-01T05:38:38.720Z,2.29
2019-04-01T05:41:04.896Z,2.38
2019-04-01T05:43:31.000Z,2.45
2019-04-01T05:45:57.001Z,2.49
2019-04-01T05:48:25.111Z,2.45
2019-04-01T05:50:51.971Z,2.31
2019-04-01T05:53:18.099Z,2.17
2019-04-01T05:55:44.215Z,2.41
2019-04-01T05:58:10.264Z,2.71
2019-04-01T06:00:41.308Z,2.97
2019-04-01T06:03:07.299Z,3.19
2019-04-01T06:05:33.483Z,3.29
2019-04-01T06:07:59.620Z,3.69
2019-04-01T06:10:25.972Z,4.03
2019-04-01T06:12:52.079Z,4.22
2019-04-01T06:15:18.299Z,4.41
2019-04-01T06:17:44.571Z,4.54
2019-04-01T06:20:10.828Z,4.78
2019-04-01T06:22:37.123Z,4.84
2019-04-01T06:25:05.190Z,4.98
2019-04-01T06:27:32.038Z,5.27
2019-04-01T06:29:59.336Z,5.55
2019-04-01T06:32:25.574Z,5.75
2019-04-01T06:34:53.114Z,5.93
2019-04-01T06:37:19.303Z,6.26
2019-04-01T06:39:45.295Z,6.54
2019-04-01T06:42:11.295Z,6.68
2019-04-01T06:44:37.340Z,6.61
2019-04-01T06:47:03.447Z,6.70
2019-04-01T06:49:29.433Z,6.91
2019-04-01T06:51:55.760Z,7.26
2019-04-01T06:54:21.805Z,7.43
2019-04-01T06:56:47.924Z,7.60
2019-04-01T06:59:13.971Z,7.71
2019-04-01T07:01:40.011Z,7.88
2019-04-01T07:04:06.026Z,7.92
2019-04-01T07:06:32.087Z,8.46
2019-04-01T07:08:58.139Z,8.30
2019-04-01T07:11:24.210Z,8.36
2019-04-01T07:13:50.297Z,8.39
2019-04-01T07:16:16.400Z,8.80
2019-04-01T07:18:42.623Z,8.89
2019-04-01T07:21:08.656Z,9.03
2019-04-01T07:23:34.755Z,8.97
2019-04-01T07:26:01.227Z,9.18
2019-04-01T07:28:27.206Z,9.41
2019-04-01T07:30:53.218Z,9.63
2019-04-01T07:33:19.317Z,9.84
2019-04-01T07:35:46.717Z,10.37
2019-04-01T07:38:13.121Z,10.29
2019-04-01T07:40:39.237Z,10.20
2019-04-01T07:43:05.376Z,10.31
2019-04-01T07:45:31.439Z,10.71
2019-04-01T07:47:57.439Z,10.84
2019-04-01T07:50:23.592Z,10.80
2019-04-01T07:52:49.681Z,10.71
2019-04-01T07:55:15.659Z,10.84
2019-04-01T07:57:41.891Z,11.18
2019-04-01T08:00:08.295Z,11.30
2019-04-01T08:02:34.387Z,11.60
2019-04-01T08:05:00.712Z,11.32
2019-04-01T08:07:26.733Z,11.46
2019-04-01T08:09:52.859Z,11.89
2019-04-01T08:12:19.095Z,12.15
2019-04-01T08:14:45.103Z,11.70
2019-04-01T08:17:11.147Z,11.97
2019-04-01T08:19:38.200Z,12.19
2019-04-01T08:22:04.292Z,11.92
2019-04-01T08:24:32.091Z,11.92
2019-04-01T08:26:59.545Z,11.78
2019-04-01T08:29:30.379Z,11.58
2019-04-01T08:31:53.651Z,11.54
2019-04-01T08:34:19.690Z,12.25
2019-04-01T08:36:45.824Z,12.95
2019-04-01T08:39:12.649Z,12.95
2019-04-01T08:41:38.861Z,13.80
2019-04-01T08:44:04.909Z,13.71
2019-04-01T08:46:30.923Z,13.96
2019-04-01T08:48:56.967Z,14.08
2019-04-01T08:51:22.967Z,13.92
2019-04-01T08:53:48.991Z,13.93
2019-04-01T08:56:15.024Z,14.22
2019-04-01T08:58:41.152Z,13.63
2019-04-01T09:01:07.383Z,14.38
2019-04-01T09:03:33.362Z,14.17
2019-04-01T09:05:59.525Z,13.24
2019-04-01T09:08:26.004Z,14.07
2019-04-01T09:10:52.222Z,14.57
2019-04-01T09:13:18.317Z,15.23
2019-04-01T09:15:44.335Z,15.23
2019-04-01T09:18:10.368Z,14.93
2019-04-01T09:20:36.382Z,14.12
2019-04-01T09:23:02.378Z,14.13
2019-04-01T09:25:28.411Z,14.14
2019-04-01T09:27:54.969Z,14.45
2019-04-01T09:30:21.280Z,14.32
2019-04-01T09:32:47.331Z,13.93
2019-04-01T09:35:13.310Z,14.50
2019-04-01T09:37:39.334Z,15.45
2019-04-01T09:40:06.444Z,15.60
2019-04-01T09:42:32.456Z,13.99
2019-04-01T09:44:58.485Z,14.86
2019-04-01T09:47:24.488Z,15.47
2019-04-01T09:49:50.485Z,16.60
2019-04-01T09:52:16.528Z,16.75
2019-04-01T09:54:42.629Z,17.03
2019-04-01T09:57:17.295Z,17.23
2019-04-01T09:59:36.551Z,17.63
2019-04-01T10:02:02.687Z,16.91
2019-04-01T10:04:29.615Z,16.17
2019-04-01T10:06:55.619Z,16.19
2019-04-01T10:09:21.647Z,16.89
2019-04-01T10:11:47.644Z,16.32
2019-04-01T10:14:13.812Z,16.78
2019-04-01T10:16:39.854Z,17.16
2019-04-01T10:19:06.001Z,17.29
2019-04-01T10:21:32.039Z,16.85
2019-04-01T10:23:58.176Z,16.90
2019-04-01T10:26:24.172Z,16.71
2019-04-01T10:28:50.192Z,16.88
2019-04-01T10:31:16.189Z,16.52
2019-04-01T10:33:42.646Z,16.58
2019-04-01T10:36:08.650Z,17.55
2019-04-01T10:38:34.669Z,18.06
2019-04-01T10:41:00.788Z,17.65
2019-04-01T10:43:27.603Z,16.49
2019-04-01T10:45:54.800Z,17.75
2019-04-01T10:48:20.872Z,18.05
2019-04-01T10:50:47.116Z,18.23
2019-04-01T10:53:13.334Z,17.90
2019-04-01T10:55:40.447Z,17.58
2019-04-01T10:58:07.341Z,17.74
2019-04-01T11:00:33.537Z,17.93
2019-04-01T11:02:59.717Z,18.18
2019-04-01T11:05:25.760Z,18.74
2019-04-01T11:07:51.868Z,18.61
2019-04-01T11:10:17.983Z,17.61
2019-04-01T11:12:43.995Z,16.81
2019-04-01T11:15:15.764Z,17.16
2019-04-01T11:17:42.132Z,18.20
2019-04-01T11:20:11.517Z,17.26
2019-04-01T11:22:37.575Z,18.48
2019-04-01T11:25:05.944Z,18.74
2019-04-01T11:27:34.174Z,18.88
2019-04-01T11:30:00.422Z,17.47
2019-04-01T11:32:26.630Z,17.24
2019-04-01T11:34:55.969Z,18.23
2019-04-01T11:37:20.636Z,17.83
2019-04-01T11:39:46.868Z,18.36
2019-04-01T11:42:12.918Z,18.36
2019-04-01T11:44:40.107Z,18.46
2019-04-01T11:47:06.334Z,18.50
2019-04-01T11:49:32.451Z,18.89
2019-04-01T11:51:58.509Z,18.25
2019-04-01T11:54:24.536Z,18.23
2019-04-01T11:56:50.594Z,18.26
2019-04-01T11:59:16.605Z,18.12
2019-04-01T12:01:42.979Z,18.20
2019-04-01T12:04:08.975Z,18.07
2019-04-01T12:06:36.863Z,18.40
2019-04-01T12:09:05.032Z,18.78
2019-04-01T12:11:31.029Z,18.57
2019-04-01T12:13:57.087Z,18.54
2019-04-01T12:16:23.639Z,18.68
2019-04-01T12:18:49.758Z,18.26
2019-04-01T12:21:15.929Z,17.30
2019-04-01T12:23:41.939Z,16.37
2019-04-01T12:26:14.856Z,16.81
2019-04-01T12:28:36.670Z,17.26
2019-04-01T12:31:02.915Z,17.11
2019-04-01T12:33:30.075Z,17.88
2019-04-01T12:35:56.355Z,16.85
2019-04-01T12:38:24.689Z,17.28
2019-04-01T12:40:50.690Z,17.48
2019-04-01T12:43:16.767Z,18.10
2019-04-01T12:45:43.263Z,18.00
2019-04-01T12:48:09.817Z,18.09
2019-04-01T12:50:37.349Z,17.83
2019-04-01T12:53:03.396Z,18.09
2019-04-01T12:55:29.830Z,17.49
2019-04-01T12:57:57.380Z,17.95
2019-04-01T13:00:23.395Z,18.11
2019-04-01T13:02:49.835Z,18.07
2019-04-01T13:05:16.152Z,18.39
2019-04-01T13:07:42.234Z,18.07
2019-04-01T13:10:08.632Z,18.05
2019-04-01T13:12:34.735Z,17.63
2019-04-01T13:15:00.785Z,17.92
2019-04-01T13:17:26.842Z,17.68
2019-04-01T13:19:52.869Z,17.88
2019-04-01T13:22:18.998Z,17.73
2019-04-01T13:24:45.150Z,18.28
2019-04-01T13:27:11.260Z,18.15
2019-04-01T13:29:38.568Z,18.68
2019-04-01T13:32:04.682Z,18.46
2019-04-01T13:34:30.780Z,18.43
2019-04-01T13:36:56.791Z,18.30
2019-04-01T13:39:22.848Z,18.19
2019-04-01T13:41:48.906Z,17.79
2019-04-01T13:44:15.071Z,17.21
2019-04-01T13:46:43.083Z,16.17
2019-04-01T13:49:09.106Z,15.80
2019-04-01T13:51:35.183Z,15.81
2019-04-01T13:54:08.521Z,15.62
2019-04-01T13:56:29.751Z,15.59
2019-04-01T13:58:55.806Z,15.92
2019-04-01T14:01:21.871Z,16.17
2019-04-01T14:03:47.911Z,16.90
2019-04-01T14:06:13.906Z,17.00
2019-04-01T14:08:39.911Z,17.39
2019-04-01T14:11:06.235Z,16.66
2019-04-01T14:13:32.399Z,16.18
2019-04-01T14:15:58.384Z,16.22
2019-04-01T14:18:24.471Z,16.63
2019-04-01T14:20:50.513Z,16.81
2019-04-01T14:23:18.173Z,16.45
2019-04-01T14:25:44.432Z,16.03
2019-04-01T14:28:10.444Z,16.32
2019-04-01T14:30:36.722Z,16.41
2019-04-01T14:33:03.131Z,16.66
2019-04-01T14:35:29.527Z,16.67
2019-04-01T14:37:58.175Z,16.64
2019-04-01T14:40:25.500Z,16.73
2019-04-01T14:42:51.607Z,16.19
2019-04-01T14:45:17.648Z,15.73
2019-04-01T14:47:56.620Z,15.73
2019-04-01T14:50:11.980Z,15.45
2019-04-01T14:52:38.017Z,14.43
2019-04-01T14:55:04.294Z,14.01
2019-04-01T14:57:30.267Z,14.19
2019-04-01T14:59:56.516Z,14.00
2019-04-01T15:02:22.689Z,13.69
2019-04-01T15:04:48.708Z,13.40
2019-04-01T15:07:18.138Z,13.12
2019-04-01T15:09:42.757Z,12.84
2019-04-01T15:12:09.434Z,12.87
2019-04-01T15:14:36.340Z,12.36
2019-04-01T15:17:02.331Z,12.15
2019-04-01T15:19:28.344Z,12.12
2019-04-01T15:21:54.318Z,11.91
2019-04-01T15:24:20.825Z,12.08
2019-04-01T15:26:47.006Z,11.94
2019-04-01T15:29:13.131Z,11.92
2019-04-01T15:31:39.114Z,11.96
2019-04-01T15:34:08.880Z,12.08
2019-04-01T15:36:33.413Z,11.84
2019-04-01T15:38:59.735Z,11.79
2019-04-01T15:41:26.888Z,11.20
2019-04-01T15:43:53.076Z,11.37
2019-04-01T15:46:19.451Z,11.46
2019-04-01T15:48:45.485Z,11.30
2019-04-01T15:51:11.612Z,11.24
2019-04-01T15:53:37.646Z,11.13
2019-04-01T15:56:03.701Z,11.26
2019-04-01T15:58:30.081Z,11.17
2019-04-01T16:00:56.304Z,11.28
2019-04-01T16:03:22.456Z,11.30
2019-04-01T16:05:49.521Z,11.25
2019-04-01T16:08:15.705Z,11.30
2019-04-01T16:10:41.840Z,11.25
2019-04-01T16:13:10.459Z,11.09
2019-04-01T16:15:38.762Z,11.15
2019-04-01T16:18:05.155Z,10.98
2019-04-01T16:20:34.045Z,10.73
2019-04-01T16:22:59.503Z,10.84
2019-04-01T16:25:25.871Z,10.82
2019-04-01T16:27:51.864Z,10.62
2019-04-01T16:30:18.138Z,10.51
2019-04-01T16:32:44.152Z,10.46
2019-04-01T16:35:10.586Z,10.55
2019-04-01T16:37:37.388Z,10.59
2019-04-01T16:40:05.818Z,10.50
2019-04-01T16:42:32.045Z,10.30
2019-04-01T16:44:58.067Z,10.15
2019-04-01T16:47:24.323Z,10.26
2019-04-01T16:49:50.527Z,10.27
2019-04-01T16:52:16.720Z,10.31
2019-04-01T16:54:46.514Z,10.19
2019-04-01T16:57:12.899Z,10.08
2019-04-01T16:59:39.062Z,9.98
2019-04-01T17:02:17.498Z,9.98
2019-04-01T17:04:33.307Z,9.91
2019-04-01T17:06:59.359Z,9.82
2019-04-01T17:09:25.599Z,9.79
2019-04-01T17:11:54.315Z,9.81
2019-04-01T17:14:19.632Z,9.90
2019-04-01T17:16:45.778Z,9.78
2019-04-01T17:19:11.928Z,9.64
2019-04-01T17:21:38.060Z,9.79
2019-04-01T17:24:04.058Z,9.72
2019-04-01T17:26:30.093Z,9.57
2019-04-01T17:28:56.128Z,9.49
2019-04-01T17:31:22.422Z,9.64
2019-04-01T17:33:49.136Z,9.62
2019-04-01T17:36:15.890Z,9.50
2019-04-01T17:38:42.213Z,9.59
2019-04-01T17:41:08.395Z,9.40
2019-04-01T17:43:34.567Z,9.30
2019-04-01T17:46:00.721Z,9.26
2019-04-01T17:48:26.753Z,9.20
2019-04-01T17:50:52.751Z,9.09
2019-04-01T17:53:19.008Z,9.12
2019-04-01T17:55:45.730Z,8.93
2019-04-01T17:58:12.000Z,9.00
2019-04-01T18:00:41.902Z,9.00
2019-04-01T18:03:09.479Z,8.76
2019-04-01T18:05:35.708Z,8.91
2019-04-01T18:08:02.339Z,8.74
2019-04-01T18:10:28.837Z,8.72
2019-04-01T18:12:55.311Z,8.60
2019-04-01T18:15:21.548Z,8.52
2019-04-01T18:17:47.587Z,8.42
2019-04-01T18:20:13.715Z,8.44
2019-04-01T18:22:40.072Z,8.37
2019-04-01T18:25:06.775Z,8.48
2019-04-01T18:27:33.377Z,8.35
2019-04-01T18:29:59.456Z,8.36
2019-04-01T18:32:25.452Z,8.32
2019-04-01T18:34:51.471Z,8.36
2019-04-01T18:37:17.621Z,8.32
2019-04-01T18:39:48.310Z,8.22
2019-04-01T18:42:12.037Z,8.12
2019-04-01T18:44:38.158Z,8.08
2019-04-01T18:47:04.815Z,8.14
2019-04-01T18:49:31.010Z,8.15
2019-04-01T18:51:57.000Z,8.05
2019-04-01T18:54:23.040Z,8.01
2019-04-01T18:56:49.019Z,7.97
2019-04-01T18:59:15.032Z,8.00
2019-04-01T19:01:41.416Z,7.88
2019-04-01T19:04:07.393Z,7.90
2019-04-01T19:06:33.507Z,7.91
2019-04-01T19:09:09.064Z,7.93
2019-04-01T19:11:27.699Z,7.77
2019-04-01T19:13:53.756Z,7.90
2019-04-01T19:16:22.955Z,7.88
2019-04-01T19:18:47.781Z,7.84
2019-04-01T19:21:14.308Z,7.77
2019-04-01T19:23:42.194Z,7.96
2019-04-01T19:26:14.724Z,7.86
2019-04-01T19:28:47.198Z,7.70
2019-04-01T19:31:17.233Z,7.46
2019-04-01T19:33:44.227Z,7.30
2019-04-01T19:36:10.426Z,7.24
2019-04-01T19:38:37.635Z,7.14
2019-04-01T19:41:03.694Z,7.01
2019-04-01T19:43:30.121Z,6.89
2019-04-01T19:45:56.173Z,6.79
2019-04-01T19:48:22.202Z,6.86
2019-04-01T19:50:48.280Z,6.78
2019-04-01T19:53:14.379Z,6.76
2019-04-01T19:55:43.628Z,6.79
2019-04-01T19:58:08.355Z,6.53
2019-04-01T20:00:34.751Z,6.60
2019-04-01T20:03:01.975Z,6.57
2019-04-01T20:05:27.963Z,6.38
2019-04-01T20:07:53.955Z,6.38
2019-04-01T20:10:20.013Z,6.52
2019-04-01T20:12:46.024Z,6.30
2019-04-01T20:15:13.308Z,6.23
2019-04-01T20:17:39.577Z,6.15
2019-04-01T20:20:06.419Z,6.09
2019-04-01T20:22:32.758Z,6.06
2019-04-01T20:24:58.779Z,6.12
2019-04-01T20:27:24.824Z,6.05
2019-04-01T20:29:50.931Z,5.96
2019-04-01T20:32:18.933Z,5.87
2019-04-01T20:34:56.374Z,5.80
2019-04-01T20:37:12.792Z,5.75
2019-04-01T20:39:38.815Z,5.67
2019-04-01T20:42:07.055Z,5.67
2019-04-01T20:44:32.823Z,5.56
2019-04-01T20:46:58.880Z,5.54
2019-04-01T20:49:24.867Z,5.43
2019-04-01T20:51:50.847Z,5.40
2019-04-01T20:54:16.876Z,5.50
2019-04-01T20:56:42.923Z,5.37
2019-04-01T20:59:10.222Z,5.37
2019-04-01T21:01:36.513Z,5.35
2019-04-01T21:04:02.628Z,5.40
2019-04-01T21:06:28.652Z,5.36
2019-04-01T21:08:54.687Z,5.32
2019-04-01T21:11:20.767Z,5.31
2019-04-01T21:13:46.795Z,5.21
2019-04-01T21:16:12.837Z,5.20
2019-04-01T21:18:38.928Z,5.00
2019-04-01T21:21:05.141Z,5.04
2019-04-01T21:23:31.126Z,5.02
2019-04-01T21:25:58.104Z,4.90
2019-04-01T21:28:25.456Z,4.87
2019-04-01T21:30:51.629Z,4.72
2019-04-01T21:33:17.625Z,4.69
2019-04-01T21:35:43.715Z,4.83
2019-04-01T21:38:09.747Z,4.84
2019-04-01T21:40:35.789Z,4.96
2019-04-01T21:43:03.208Z,4.86
2019-04-01T21:45:29.483Z,4.72
2019-04-01T21:47:55.478Z,4.75
2019-04-01T21:50:21.482Z,4.64
2019-04-01T21:52:47.611Z,4.52
2019-04-01T21:55:14.170Z,4.44
2019-04-01T21:57:40.257Z,4.50
2019-04-01T22:00:10.501Z,4.48
2019-04-01T22:02:36.607Z,4.39
2019-04-01T22:05:04.837Z,4.37
2019-04-01T22:07:31.300Z,4.38
2019-04-01T22:09:57.327Z,4.47
2019-04-01T22:12:23.478Z,4.48
2019-04-01T22:14:49.952Z,4.41
2019-04-01T22:17:16.138Z,4.36
2019-04-01T22:19:43.009Z,4.41
2019-04-01T22:22:09.396Z,4.44
2019-04-01T22:24:35.521Z,4.38
2019-04-01T22:27:01.504Z,4.36
2019-04-01T22:29:27.544Z,4.34
2019-04-01T22:31:53.592Z,4.35
2019-04-01T22:34:19.789Z,4.36
2019-04-01T22:36:45.788Z,4.42
2019-04-01T22:39:11.837Z,4.39
2019-04-01T22:41:37.955Z,4.35
2019-04-01T22:44:03.996Z,4.32
2019-04-01T22:46:29.990Z,4.38
2019-04-01T22:48:56.022Z,4.34
2019-04-01T22:51:22.037Z,4.30
2019-04-01T22:53:48.011Z,4.35
2019-04-01T22:56:14.047Z,4.34
2019-04-01T22:58:40.120Z,4.35
2019-04-01T23:01:06.233Z,4.23
2019-04-01T23:03:32.278Z,4.21
2019-04-01T23:05:58.284Z,4.20
2019-04-01T23:08:24.290Z,4.26
2019-04-01T23:10:50.300Z,4.30
2019-04-01T23:13:16.271Z,4.22
2019-04-01T23:15:43.169Z,4.28
2019-04-01T23:18:10.186Z,4.19
2019-04-01T23:20:36.168Z,4.18
2019-04-01T23:23:02.188Z,4.27
2019-04-01T23:25:28.272Z,4.16
2019-04-01T23:27:55.344Z,4.19
2019-04-01T23:30:21.550Z,4.12
2019-04-01T23:32:47.576Z,4.04
2019-04-01T23:35:13.548Z,4.09
2019-04-01T23:37:39.575Z,3.99
2019-04-01T23:40:05.867Z,4.09
2019-04-01T23:42:31.839Z,4.01
2019-04-01T23:44:57.862Z,3.99
2019-04-01T23:47:23.908Z,3.94
2019-04-01T23:49:50.454Z,3.95
2019-04-01T23:52:16.447Z,4.13
2019-04-01T23:54:42.448Z,4.09
2019-04-01T23:57:08.446Z,3.88
2019-04-01T23:59:34.543Z,3.88
